GABS/BKO METAR and TAF weather

Enter ICAO airport designator
Station Type Date Time Source
GABS METAR 2019/04/18 20:00 UTC NOAA

GABS 182000Z 02004KT CAVOK 35/00 Q1009 NOSIG


Station Type Date Time Source
GABS Decoded METAR 2019/04/18 20:00 UTC NOAA

Bamako / Senou, Mali (GABS) 12-32N 007-57W 381M
Apr 18, 2019 - 04:00 PM EDT / 2019.04.18 2000 UTC
Wind: from the NNE (020 degrees) at 5 MPH (4 KT):0
Visibility: greater than 7 mile(s):0
Temperature: 95 F (35 C)
Dew Point: 32 F (0 C)
Relative Humidity: 10%
Pressure (altimeter): 29.80 in. Hg (1009 hPa)
ob: GABS 182000Z 02004KT CAVOK 35/00 Q1009 NOSIG
cycle: 20

Station Type Date Time Source
GABS TAF 2019/04/18 18:09 UTC NOAA

TAF TAF GABS 181700Z 1818/1924 05010KT CAVOK
BECMG 1903/1905 18008KT

Example: see airport list